createdAt,value
2023-03-26T00:00:45.022Z,6.69
2023-03-26T00:01:45.028Z,6.70
2023-03-26T00:02:45.054Z,6.74
2023-03-26T00:03:45.128Z,6.73
2023-03-26T00:04:44.982Z,6.77
2023-03-26T00:05:45.862Z,6.77
2023-03-26T00:06:44.969Z,6.79
2023-03-26T00:07:44.942Z,6.77
2023-03-26T00:08:44.975Z,6.79
2023-03-26T00:09:44.930Z,6.79
2023-03-26T00:10:44.928Z,6.77
2023-03-26T00:11:44.905Z,6.81
2023-03-26T00:12:44.918Z,6.77
2023-03-26T00:13:44.874Z,6.77
2023-03-26T00:14:44.888Z,6.80
2023-03-26T00:15:44.862Z,6.74
2023-03-26T00:16:44.901Z,6.77
2023-03-26T00:17:44.862Z,6.77
2023-03-26T00:18:44.837Z,6.79
2023-03-26T00:19:44.810Z,6.79
2023-03-26T00:20:44.828Z,6.77
2023-03-26T00:21:44.792Z,6.77
2023-03-26T00:22:44.791Z,6.74
2023-03-26T00:23:44.764Z,6.80
2023-03-26T00:24:44.773Z,6.79
2023-03-26T00:25:44.746Z,6.81
2023-03-26T00:26:44.809Z,6.81
2023-03-26T00:27:44.727Z,6.88
2023-03-26T00:28:44.735Z,6.89
2023-03-26T00:29:44.703Z,6.89
2023-03-26T00:30:44.721Z,6.94
2023-03-26T00:31:44.691Z,6.95
2023-03-26T00:32:44.714Z,6.97
2023-03-26T00:33:45.667Z,6.97
2023-03-26T00:34:44.665Z,6.97
2023-03-26T00:35:44.673Z,6.99
2023-03-26T00:36:44.641Z,6.99
2023-03-26T00:37:44.646Z,6.98
2023-03-26T00:38:44.627Z,6.95
2023-03-26T00:39:44.621Z,6.99
2023-03-26T00:40:44.611Z,6.99
2023-03-26T00:41:44.676Z,6.99
2023-03-26T00:42:44.581Z,6.97
2023-03-26T00:43:44.564Z,6.97
2023-03-26T00:44:44.565Z,6.97
2023-03-26T00:45:44.572Z,6.98
2023-03-26T00:46:44.591Z,6.98
2023-03-26T00:47:44.554Z,6.95
2023-03-26T00:48:45.787Z,6.92
2023-03-26T00:49:44.493Z,6.95
2023-03-26T00:50:44.504Z,6.89
2023-03-26T00:51:44.489Z,6.87
2023-03-26T00:52:44.464Z,6.91
2023-03-26T00:53:44.486Z,6.88
2023-03-26T00:54:44.442Z,6.85
2023-03-26T00:55:44.448Z,6.84
2023-03-26T00:56:44.474Z,6.81
2023-03-26T00:57:44.440Z,6.81
2023-03-26T00:58:44.395Z,6.81
2023-03-26T00:59:44.408Z,6.91
2023-03-26T01:00:46.790Z,6.94
2023-03-26T01:01:44.477Z,6.94
2023-03-26T01:02:44.424Z,6.95
2023-03-26T01:03:56.649Z,6.98
2023-03-26T01:04:45.406Z,6.95
2023-03-26T01:05:44.333Z,6.91
2023-03-26T01:06:44.315Z,6.91
2023-03-26T01:07:44.316Z,6.88
2023-03-26T01:08:44.301Z,6.87
2023-03-26T01:09:45.167Z,6.87
2023-03-26T01:10:44.276Z,6.87
2023-03-26T01:11:44.271Z,6.84
2023-03-26T01:12:44.252Z,6.84
2023-03-26T01:13:44.246Z,6.80
2023-03-26T01:14:44.235Z,6.81
2023-03-26T01:15:44.304Z,6.79
2023-03-26T01:16:44.203Z,6.79
2023-03-26T01:17:44.225Z,6.76
2023-03-26T01:18:44.194Z,6.76
2023-03-26T01:19:44.183Z,6.70
2023-03-26T01:20:44.165Z,6.74
2023-03-26T01:21:44.169Z,6.70
2023-03-26T01:22:44.139Z,6.70
2023-03-26T01:23:44.151Z,6.69
2023-03-26T01:24:44.130Z,6.69
2023-03-26T01:25:44.119Z,6.69
2023-03-26T01:26:44.358Z,6.67
2023-03-26T01:27:44.101Z,6.66
2023-03-26T01:28:44.070Z,6.66
2023-03-26T01:29:44.099Z,6.67
2023-03-26T01:30:44.062Z,6.70
2023-03-26T01:31:44.065Z,6.73
2023-03-26T01:32:44.357Z,6.80
2023-03-26T01:33:44.151Z,6.80
2023-03-26T01:34:44.022Z,6.81
2023-03-26T01:35:44.069Z,6.87
2023-03-26T01:36:44.204Z,6.85
2023-03-26T01:37:43.988Z,6.87
2023-03-26T01:38:43.968Z,6.85
2023-03-26T01:39:43.967Z,6.87
2023-03-26T01:40:43.943Z,6.89
2023-03-26T01:41:43.961Z,6.88
2023-03-26T01:42:43.933Z,6.89
2023-03-26T01:43:43.923Z,6.89
2023-03-26T01:44:43.906Z,6.85
2023-03-26T01:45:43.900Z,6.87
2023-03-26T01:46:44.769Z,6.87
2023-03-26T01:47:43.944Z,6.85
2023-03-26T01:48:43.863Z,6.79
2023-03-26T01:49:43.859Z,6.80
2023-03-26T01:50:43.843Z,6.77
2023-03-26T01:51:43.835Z,6.76
2023-03-26T01:52:43.827Z,6.74
2023-03-26T01:53:43.831Z,6.71
2023-03-26T01:54:44.619Z,6.77
2023-03-26T01:55:43.793Z,6.79
2023-03-26T01:56:43.790Z,6.79
2023-03-26T01:57:43.771Z,6.79
2023-03-26T01:58:43.759Z,6.79
2023-03-26T01:59:43.755Z,6.77
2023-03-26T02:00:43.737Z,6.84
2023-03-26T02:01:43.782Z,6.85
2023-03-26T02:02:43.800Z,6.84
2023-03-26T02:03:43.793Z,6.85
2023-03-26T02:04:43.689Z,6.81
2023-03-26T02:05:43.708Z,6.80
2023-03-26T02:06:43.669Z,6.79
2023-03-26T02:07:43.661Z,6.79
2023-03-26T02:08:43.655Z,6.74
2023-03-26T02:09:43.649Z,6.76
2023-03-26T02:10:43.627Z,6.76
2023-03-26T02:11:43.625Z,6.77
2023-03-26T02:12:43.605Z,6.81
2023-03-26T02:13:44.125Z,6.84
2023-03-26T02:14:43.606Z,6.85
2023-03-26T02:15:43.579Z,6.85
2023-03-26T02:16:43.618Z,6.87
2023-03-26T02:17:43.583Z,6.87
2023-03-26T02:18:43.537Z,6.92
2023-03-26T02:19:43.547Z,6.89
2023-03-26T02:20:43.518Z,6.91
2023-03-26T02:21:43.525Z,6.88
2023-03-26T02:22:43.491Z,6.87
2023-03-26T02:23:43.502Z,6.85
2023-03-26T02:24:43.470Z,6.80
2023-03-26T02:25:43.478Z,6.77
2023-03-26T02:26:43.448Z,6.74
2023-03-26T02:27:43.452Z,6.77
2023-03-26T02:28:43.427Z,6.76
2023-03-26T02:29:43.434Z,6.79
2023-03-26T02:30:43.419Z,6.79
2023-03-26T02:31:43.572Z,6.77
2023-03-26T02:32:43.441Z,6.80
2023-03-26T02:33:43.383Z,6.87
2023-03-26T02:34:43.369Z,6.89
2023-03-26T02:35:43.451Z,6.89
2023-03-26T02:36:43.460Z,6.87
2023-03-26T02:37:43.363Z,6.85
2023-03-26T02:38:43.328Z,6.85
2023-03-26T02:39:44.135Z,6.84
2023-03-26T02:40:43.303Z,6.81
2023-03-26T02:41:43.302Z,6.87
2023-03-26T02:42:43.280Z,6.87
2023-03-26T02:43:43.293Z,6.89
2023-03-26T02:44:43.263Z,6.92
2023-03-26T02:45:43.294Z,6.94
2023-03-26T02:46:43.232Z,6.94
2023-03-26T02:47:43.326Z,6.89
2023-03-26T02:48:43.234Z,6.88
2023-03-26T02:49:43.206Z,6.87
2023-03-26T02:50:43.184Z,6.85
2023-03-26T02:51:43.188Z,6.81
2023-03-26T02:52:43.200Z,6.80
2023-03-26T02:53:43.180Z,6.79
2023-03-26T02:54:43.148Z,6.77
2023-03-26T02:55:43.153Z,6.76
2023-03-26T02:56:43.171Z,6.77
2023-03-26T02:57:43.136Z,6.79
2023-03-26T02:58:43.109Z,6.76
2023-03-26T02:59:43.099Z,6.74
2023-03-26T03:00:43.084Z,6.76
2023-03-26T03:01:43.132Z,6.76
2023-03-26T03:02:43.130Z,6.74
2023-03-26T03:03:43.064Z,6.74
2023-03-26T03:04:43.037Z,6.76
2023-03-26T03:05:43.104Z,6.74
2023-03-26T03:06:43.720Z,6.74
2023-03-26T03:07:43.041Z,6.79
2023-03-26T03:08:43.000Z,6.79
2023-03-26T03:09:43.009Z,6.79
2023-03-26T03:10:42.989Z,6.81
2023-03-26T03:11:42.974Z,6.87
2023-03-26T03:12:42.957Z,6.85
2023-03-26T03:13:42.956Z,6.87
2023-03-26T03:14:42.936Z,6.84
2023-03-26T03:15:42.933Z,6.89
2023-03-26T03:16:42.955Z,6.92
2023-03-26T03:17:42.946Z,6.91
2023-03-26T03:18:43.127Z,6.91
2023-03-26T03:19:42.896Z,6.91
2023-03-26T03:20:42.871Z,6.91
2023-03-26T03:21:42.880Z,6.91
2023-03-26T03:22:42.849Z,6.87
2023-03-26T03:23:42.844Z,6.94
2023-03-26T03:24:42.828Z,7.02
2023-03-26T03:25:42.841Z,7.03
2023-03-26T03:26:42.815Z,7.06
2023-03-26T03:27:42.883Z,7.05
2023-03-26T03:28:42.797Z,7.06
2023-03-26T03:29:42.785Z,7.05
2023-03-26T03:30:43.647Z,7.05
2023-03-26T03:31:42.768Z,7.07
2023-03-26T03:32:42.813Z,7.10
2023-03-26T03:33:42.747Z,7.12
2023-03-26T03:34:42.722Z,7.15
2023-03-26T03:35:42.763Z,7.17
2023-03-26T03:36:42.707Z,7.15
2023-03-26T03:37:42.722Z,7.16
2023-03-26T03:38:42.680Z,7.13
2023-03-26T03:39:43.502Z,7.12
2023-03-26T03:40:42.919Z,7.10
2023-03-26T03:41:42.668Z,7.09
2023-03-26T03:42:42.648Z,7.09
2023-03-26T03:43:42.646Z,7.09
2023-03-26T03:44:42.616Z,7.06
2023-03-26T03:45:42.616Z,7.05
2023-03-26T03:46:42.660Z,7.05
2023-03-26T03:47:42.751Z,7.06
2023-03-26T03:48:42.589Z,7.10
2023-03-26T03:49:42.581Z,7.13
2023-03-26T03:50:42.568Z,7.13
2023-03-26T03:51:42.570Z,7.10
2023-03-26T03:52:43.354Z,7.09
2023-03-26T03:53:42.553Z,7.07
2023-03-26T03:54:42.514Z,7.07
2023-03-26T03:55:42.504Z,7.06
2023-03-26T03:56:42.535Z,7.10
2023-03-26T03:57:42.490Z,7.16
2023-03-26T03:58:42.480Z,7.24
2023-03-26T03:59:47.908Z,7.27
2023-03-26T04:00:43.456Z,7.30
2023-03-26T04:01:42.443Z,7.31
2023-03-26T04:02:42.576Z,7.31
2023-03-26T04:03:42.553Z,7.30
2023-03-26T04:04:42.452Z,7.31
2023-03-26T04:05:42.408Z,7.32
2023-03-26T04:06:42.374Z,7.30
2023-03-26T04:07:42.404Z,7.27
2023-03-26T04:08:42.362Z,7.21
2023-03-26T04:09:42.370Z,7.17
2023-03-26T04:10:42.337Z,7.16
2023-03-26T04:11:42.352Z,7.13
2023-03-26T04:12:42.327Z,7.12
2023-03-26T04:13:42.319Z,7.15
2023-03-26T04:14:42.292Z,7.13
2023-03-26T04:15:42.348Z,7.13
2023-03-26T04:16:42.269Z,7.15
2023-03-26T04:17:42.428Z,7.21
2023-03-26T04:18:42.271Z,7.24
2023-03-26T04:19:42.252Z,7.23
2023-03-26T04:20:42.225Z,7.28
2023-03-26T04:21:42.220Z,7.27
2023-03-26T04:22:42.205Z,7.24
2023-03-26T04:23:42.302Z,7.23
2023-03-26T04:24:42.190Z,7.20
2023-03-26T04:25:42.181Z,7.16
2023-03-26T04:26:42.168Z,7.21
2023-03-26T04:27:42.172Z,7.24
2023-03-26T04:28:42.353Z,7.24
2023-03-26T04:29:42.151Z,7.28
2023-03-26T04:30:42.132Z,7.30
2023-03-26T04:31:42.238Z,7.34
2023-03-26T04:32:42.168Z,7.34
2023-03-26T04:33:42.114Z,7.32
2023-03-26T04:34:42.103Z,7.28
2023-03-26T04:35:42.115Z,7.27
2023-03-26T04:36:42.056Z,7.28
2023-03-26T04:37:42.061Z,7.27
2023-03-26T04:38:42.078Z,7.30
2023-03-26T04:39:42.055Z,7.32
2023-03-26T04:40:42.020Z,7.32
2023-03-26T04:41:42.017Z,7.32
2023-03-26T04:42:41.993Z,7.32
2023-03-26T04:43:42.006Z,7.30
2023-03-26T04:44:41.982Z,7.30
2023-03-26T04:45:41.974Z,7.24
2023-03-26T04:46:41.975Z,7.20
2023-03-26T04:47:42.066Z,7.15
2023-03-26T04:48:41.926Z,7.10
2023-03-26T04:49:41.940Z,7.10
2023-03-26T04:50:41.906Z,7.09
2023-03-26T04:51:41.967Z,7.10
2023-03-26T04:52:43.873Z,7.09
2023-03-26T04:53:42.021Z,7.05
2023-03-26T04:54:42.042Z,7.03
2023-03-26T04:55:41.868Z,7.03
2023-03-26T04:56:41.918Z,7.03
2023-03-26T04:57:41.842Z,7.05
2023-03-26T04:58:41.817Z,7.02
2023-03-26T04:59:41.836Z,6.99
2023-03-26T05:00:41.827Z,7.02
2023-03-26T05:01:41.839Z,7.03
2023-03-26T05:02:41.797Z,7.03
2023-03-26T05:03:41.948Z,6.98
2023-03-26T05:04:41.825Z,6.98
2023-03-26T05:05:41.752Z,6.95
2023-03-26T05:06:41.756Z,6.94
2023-03-26T05:07:41.721Z,6.91
2023-03-26T05:08:41.812Z,6.91
2023-03-26T05:09:41.703Z,6.89
2023-03-26T05:10:41.699Z,6.89
2023-03-26T05:11:41.701Z,6.87
2023-03-26T05:12:41.693Z,6.88
2023-03-26T05:13:41.668Z,6.88
2023-03-26T05:14:42.440Z,6.87
2023-03-26T05:15:41.668Z,6.89
2023-03-26T05:16:41.691Z,6.91
2023-03-26T05:17:41.887Z,6.91
2023-03-26T05:18:41.613Z,6.89
2023-03-26T05:19:41.620Z,6.89
2023-03-26T05:20:41.606Z,6.85
2023-03-26T05:21:41.575Z,6.85
2023-03-26T05:22:41.574Z,6.88
2023-03-26T05:23:41.558Z,6.87
2023-03-26T05:24:41.556Z,6.87
2023-03-26T05:25:41.538Z,6.88
2023-03-26T05:26:41.538Z,6.84
2023-03-26T05:27:41.506Z,6.81
2023-03-26T05:28:41.514Z,6.84
2023-03-26T05:29:41.490Z,6.84
2023-03-26T05:30:41.493Z,6.80
2023-03-26T05:31:41.462Z,6.77
2023-03-26T05:32:41.514Z,6.79
2023-03-26T05:33:41.539Z,6.80
2023-03-26T05:34:41.469Z,6.84
2023-03-26T05:35:41.449Z,6.84
2023-03-26T05:36:41.441Z,6.87
2023-03-26T05:37:41.396Z,6.87
2023-03-26T05:38:41.396Z,6.88
2023-03-26T05:39:41.420Z,6.87
2023-03-26T05:40:41.385Z,6.88
2023-03-26T05:41:41.363Z,6.85
2023-03-26T05:42:41.369Z,6.87
2023-03-26T05:43:41.337Z,6.87
2023-03-26T05:44:41.338Z,6.91
2023-03-26T05:45:41.375Z,6.97
2023-03-26T05:46:41.323Z,6.99
2023-03-26T05:47:41.358Z,7.03
2023-03-26T05:48:41.296Z,7.05
2023-03-26T05:49:41.269Z,7.09
2023-03-26T05:50:41.283Z,7.06
2023-03-26T05:51:41.252Z,7.12
2023-03-26T05:52:41.249Z,7.10
2023-03-26T05:53:41.242Z,7.15
2023-03-26T05:54:41.235Z,7.13
2023-03-26T05:55:41.209Z,7.15
2023-03-26T05:56:41.254Z,7.13
2023-03-26T05:57:41.193Z,7.15
2023-03-26T05:58:41.202Z,7.16
2023-03-26T05:59:41.160Z,7.16
2023-03-26T06:00:41.165Z,7.13
2023-03-26T06:01:41.151Z,7.15
2023-03-26T06:02:41.184Z,7.10
2023-03-26T06:03:41.188Z,7.07
2023-03-26T06:04:41.349Z,7.05
2023-03-26T06:05:41.111Z,7.03
2023-03-26T06:06:41.101Z,6.99
2023-03-26T06:07:41.088Z,6.98
2023-03-26T06:08:41.262Z,6.97
2023-03-26T06:09:41.085Z,6.95
2023-03-26T06:10:41.062Z,6.91
2023-03-26T06:11:41.054Z,6.92
2023-03-26T06:12:41.430Z,6.88
2023-03-26T06:13:41.018Z,6.97
2023-03-26T06:14:41.033Z,7.06
2023-03-26T06:15:41.074Z,7.13
2023-03-26T06:16:41.005Z,7.16
2023-03-26T06:17:41.040Z,7.13
2023-03-26T06:18:41.035Z,7.16
2023-03-26T06:19:40.966Z,7.15
2023-03-26T06:20:40.978Z,7.15
2023-03-26T06:21:40.931Z,7.12
2023-03-26T06:22:40.957Z,7.06
2023-03-26T06:23:40.922Z,7.03
2023-03-26T06:24:40.921Z,7.02
2023-03-26T06:25:40.893Z,6.97
2023-03-26T06:26:40.885Z,6.95
2023-03-26T06:27:40.936Z,6.95
2023-03-26T06:28:40.887Z,6.92
2023-03-26T06:29:40.849Z,6.94
2023-03-26T06:30:40.843Z,6.94
2023-03-26T06:31:40.884Z,6.94
2023-03-26T06:32:40.896Z,6.97
2023-03-26T06:33:40.804Z,6.98
2023-03-26T06:34:40.804Z,6.98
2023-03-26T06:35:40.797Z,6.99
2023-03-26T06:36:41.191Z,6.98
2023-03-26T06:37:40.762Z,6.98
2023-03-26T06:38:40.763Z,7.02
2023-03-26T06:39:40.742Z,7.02
2023-03-26T06:40:41.037Z,7.03
2023-03-26T06:41:40.729Z,7.03
2023-03-26T06:43:08.341Z,7.05
2023-03-26T06:43:41.697Z,7.07
2023-03-26T06:44:40.708Z,7.07
2023-03-26T06:45:40.688Z,7.07
2023-03-26T06:46:40.765Z,7.10
2023-03-26T06:47:40.682Z,7.09
2023-03-26T06:48:40.662Z,7.16
2023-03-26T06:49:40.637Z,7.16
2023-03-26T06:50:40.648Z,7.21
2023-03-26T06:51:40.624Z,7.24
2023-03-26T06:52:40.618Z,7.28
2023-03-26T06:53:40.589Z,7.28
2023-03-26T06:54:40.592Z,7.27
2023-03-26T06:55:40.585Z,7.24
2023-03-26T06:56:40.614Z,7.24
2023-03-26T06:57:40.566Z,7.24
2023-03-26T06:58:40.569Z,7.24
2023-03-26T06:59:40.536Z,7.20
2023-03-26T07:00:40.565Z,7.21
2023-03-26T07:01:40.566Z,7.16
2023-03-26T07:02:40.565Z,7.17
2023-03-26T07:03:40.535Z,7.13
2023-03-26T07:04:40.488Z,7.15
2023-03-26T07:05:40.478Z,7.13
2023-03-26T07:06:40.457Z,7.09
2023-03-26T07:07:46.405Z,7.09
2023-03-26T07:08:41.494Z,7.05
2023-03-26T07:09:40.428Z,7.05
2023-03-26T07:10:40.429Z,7.03
2023-03-26T07:11:40.419Z,6.95
2023-03-26T07:12:40.405Z,6.94
2023-03-26T07:13:40.388Z,6.92
2023-03-26T07:14:40.389Z,6.92
2023-03-26T07:15:40.371Z,6.89
2023-03-26T07:16:40.401Z,6.84
2023-03-26T07:17:40.359Z,6.84
2023-03-26T07:18:40.342Z,6.80
2023-03-26T07:19:40.320Z,6.79
2023-03-26T07:20:40.345Z,6.79
2023-03-26T07:21:40.293Z,6.74
2023-03-26T07:22:40.302Z,6.77
2023-03-26T07:23:40.281Z,6.77
2023-03-26T07:24:40.285Z,6.79
2023-03-26T07:25:40.254Z,6.77
2023-03-26T07:26:40.253Z,6.74
2023-03-26T07:27:40.244Z,6.71
2023-03-26T07:28:40.229Z,6.70
2023-03-26T07:29:40.205Z,6.73
2023-03-26T07:30:40.232Z,6.79
2023-03-26T07:31:40.223Z,6.84
2023-03-26T07:32:40.412Z,6.87
2023-03-26T07:33:40.171Z,6.85
2023-03-26T07:34:40.166Z,6.89
2023-03-26T07:35:40.180Z,6.91
2023-03-26T07:36:40.149Z,6.80
2023-03-26T07:37:40.130Z,6.76
2023-03-26T07:38:40.128Z,6.73
2023-03-26T07:39:40.128Z,6.70
2023-03-26T07:40:40.121Z,6.69
2023-03-26T07:41:40.083Z,6.67
2023-03-26T07:42:40.091Z,6.67
2023-03-26T07:43:40.064Z,6.66
2023-03-26T07:44:41.030Z,6.67
2023-03-26T07:45:40.083Z,6.66
2023-03-26T07:46:40.042Z,6.67
2023-03-26T07:47:40.042Z,6.67
2023-03-26T07:48:40.046Z,6.64
2023-03-26T07:49:39.994Z,6.64
2023-03-26T07:50:40.075Z,6.59
2023-03-26T07:51:39.986Z,6.58
2023-03-26T07:52:40.418Z,6.59
2023-03-26T07:53:40.210Z,6.61
2023-03-26T07:54:39.957Z,6.66
2023-03-26T07:55:39.933Z,6.66
2023-03-26T07:56:40.057Z,6.64
2023-03-26T07:57:39.942Z,6.61
2023-03-26T07:58:39.909Z,6.61
2023-03-26T07:59:39.890Z,6.66
2023-03-26T08:00:39.888Z,6.64
2023-03-26T08:01:39.880Z,6.66
2023-03-26T08:02:39.884Z,6.67
2023-03-26T08:03:39.932Z,6.64
2023-03-26T08:04:39.928Z,6.64
2023-03-26T08:05:39.834Z,6.66
2023-03-26T08:06:39.844Z,6.66
2023-03-26T08:07:39.807Z,6.66
2023-03-26T08:08:39.810Z,6.69
2023-03-26T08:09:39.796Z,6.69
2023-03-26T08:10:39.809Z,6.73
2023-03-26T08:11:39.757Z,6.76
2023-03-26T08:12:39.757Z,6.77
2023-03-26T08:13:40.713Z,6.85
2023-03-26T08:14:39.738Z,6.79
2023-03-26T08:15:39.765Z,6.80
2023-03-26T08:16:39.722Z,6.85
2023-03-26T08:17:39.764Z,6.85
2023-03-26T08:18:39.695Z,6.84
2023-03-26T08:19:39.676Z,6.81
2023-03-26T08:20:39.690Z,6.84
2023-03-26T08:21:39.695Z,6.85
2023-03-26T08:22:39.652Z,6.87
2023-03-26T08:23:50.668Z,6.85
2023-03-26T08:24:40.637Z,6.81
2023-03-26T08:25:39.730Z,6.76
2023-03-26T08:26:39.624Z,6.77
2023-03-26T08:27:39.584Z,6.69
2023-03-26T08:28:39.596Z,6.70
2023-03-26T08:29:39.576Z,6.74
2023-03-26T08:30:39.558Z,6.73
2023-03-26T08:31:39.771Z,6.74
2023-03-26T08:32:39.590Z,6.76
2023-03-26T08:33:39.530Z,6.77
2023-03-26T08:34:39.541Z,6.81
2023-03-26T08:35:39.520Z,6.80
2023-03-26T08:36:39.495Z,6.77
2023-03-26T08:37:39.482Z,6.77
2023-03-26T08:38:39.511Z,6.80
2023-03-26T08:39:39.807Z,6.74
2023-03-26T08:40:39.461Z,6.73
2023-03-26T08:41:39.436Z,6.80
2023-03-26T08:42:40.245Z,6.79
2023-03-26T08:43:40.233Z,6.80
2023-03-26T08:44:39.421Z,6.80
2023-03-26T08:45:39.393Z,6.84
2023-03-26T08:46:39.426Z,6.84
2023-03-26T08:47:39.432Z,6.85
2023-03-26T08:48:39.404Z,6.89
2023-03-26T08:49:39.373Z,6.88
2023-03-26T08:50:39.366Z,6.81
2023-03-26T08:51:39.344Z,6.84
2023-03-26T08:52:40.136Z,6.81
2023-03-26T08:53:39.450Z,6.81
2023-03-26T08:54:39.317Z,6.77
2023-03-26T08:55:39.296Z,6.77
2023-03-26T08:56:39.310Z,6.77
2023-03-26T08:57:39.266Z,6.79
2023-03-26T08:58:39.277Z,6.81
2023-03-26T08:59:39.256Z,6.87
2023-03-26T09:00:39.256Z,6.84
2023-03-26T09:01:39.344Z,6.85
2023-03-26T09:02:39.274Z,6.85
2023-03-26T09:03:39.242Z,6.87
2023-03-26T09:04:39.207Z,6.91
2023-03-26T09:05:39.190Z,6.89
2023-03-26T09:06:39.184Z,6.89
2023-03-26T09:07:39.165Z,6.87
2023-03-26T09:08:39.162Z,6.91
2023-03-26T09:09:40.143Z,6.92
2023-03-26T09:10:39.137Z,6.97
2023-03-26T09:11:39.135Z,7.03
2023-03-26T09:12:39.121Z,7.06
2023-03-26T09:13:39.124Z,7.09
2023-03-26T09:14:39.100Z,7.17
2023-03-26T09:15:39.097Z,7.23
2023-03-26T09:16:39.124Z,7.35
2023-03-26T09:17:39.079Z,7.43
2023-03-26T09:18:39.067Z,7.50
2023-03-26T09:19:39.039Z,7.49
2023-03-26T09:20:40.003Z,7.50
2023-03-26T09:21:39.023Z,7.60
2023-03-26T09:22:39.007Z,7.68
2023-03-26T09:23:38.999Z,7.69
2023-03-26T09:24:39.006Z,7.64
2023-03-26T09:25:38.990Z,7.61
2023-03-26T09:26:39.188Z,7.50
2023-03-26T09:27:38.970Z,7.57
2023-03-26T09:28:38.944Z,7.61
2023-03-26T09:29:38.939Z,7.67
2023-03-26T09:30:38.936Z,7.69
2023-03-26T09:31:38.971Z,7.71
2023-03-26T09:32:38.930Z,7.77
2023-03-26T09:33:38.897Z,7.79
2023-03-26T09:34:38.882Z,7.85
2023-03-26T09:35:38.906Z,7.83
2023-03-26T09:36:38.971Z,7.83
2023-03-26T09:37:56.963Z,7.89
2023-03-26T09:38:39.846Z,7.98
2023-03-26T09:39:38.831Z,7.98
2023-03-26T09:40:38.820Z,8.02
2023-03-26T09:41:38.805Z,8.08
2023-03-26T09:42:39.751Z,8.08
2023-03-26T09:43:39.768Z,8.11
2023-03-26T09:44:38.800Z,8.15
2023-03-26T09:45:38.840Z,8.23
2023-03-26T09:46:38.744Z,8.20
2023-03-26T09:47:38.754Z,8.26
2023-03-26T09:48:38.732Z,8.30
2023-03-26T09:49:38.729Z,8.33
2023-03-26T09:50:38.708Z,8.30
2023-03-26T09:51:38.716Z,8.28
2023-03-26T09:52:38.678Z,8.25
2023-03-26T09:53:38.678Z,8.11
2023-03-26T09:54:38.672Z,8.15
2023-03-26T09:55:38.661Z,8.07
2023-03-26T09:56:39.590Z,8.04
2023-03-26T09:57:38.653Z,7.98
2023-03-26T09:58:38.614Z,7.98
2023-03-26T09:59:38.611Z,8.00
2023-03-26T10:00:38.602Z,8.00
2023-03-26T10:01:38.625Z,8.00
2023-03-26T10:02:46.348Z,8.04
2023-03-26T10:03:39.566Z,8.05
2023-03-26T10:04:38.610Z,8.07
2023-03-26T10:05:38.549Z,8.11
2023-03-26T10:06:38.536Z,8.12
2023-03-26T10:07:38.525Z,8.20
2023-03-26T10:08:38.502Z,8.23
2023-03-26T10:09:38.502Z,8.28
2023-03-26T10:10:38.508Z,8.29
2023-03-26T10:11:38.491Z,8.37
2023-03-26T10:12:38.470Z,8.41
2023-03-26T10:13:38.463Z,8.45
2023-03-26T10:14:38.440Z,8.55
2023-03-26T10:15:38.444Z,8.53
2023-03-26T10:16:38.481Z,8.56
2023-03-26T10:17:38.705Z,8.61
2023-03-26T10:18:38.404Z,8.63
2023-03-26T10:19:38.408Z,8.73
2023-03-26T10:20:38.380Z,8.71
2023-03-26T10:21:38.394Z,8.62
2023-03-26T10:22:38.356Z,8.59
2023-03-26T10:23:38.353Z,8.62
2023-03-26T10:24:38.340Z,8.56
2023-03-26T10:25:38.334Z,8.56
2023-03-26T10:26:38.307Z,8.61
2023-03-26T10:27:38.332Z,8.73
2023-03-26T10:28:38.507Z,8.81
2023-03-26T10:29:39.224Z,8.87
2023-03-26T10:30:38.328Z,8.94
2023-03-26T10:31:39.064Z,8.92
2023-03-26T10:32:38.268Z,9.02
2023-03-26T10:33:38.245Z,9.23
2023-03-26T10:34:38.230Z,9.33
2023-03-26T10:35:38.254Z,9.48
2023-03-26T10:36:38.206Z,9.65
2023-03-26T10:37:38.212Z,9.83
2023-03-26T10:38:38.383Z,10.01
2023-03-26T10:39:39.444Z,10.14
2023-03-26T10:40:38.485Z,9.89
2023-03-26T10:41:38.955Z,9.81
2023-03-26T10:42:38.136Z,9.90
2023-03-26T10:43:38.135Z,9.94
2023-03-26T10:44:38.114Z,9.99
2023-03-26T10:45:38.126Z,10.05
2023-03-26T10:46:38.128Z,10.11
2023-03-26T10:47:38.124Z,10.08
2023-03-26T10:48:38.073Z,10.09
2023-03-26T10:49:38.069Z,10.12
2023-03-26T10:50:38.066Z,10.07
2023-03-26T10:51:38.047Z,10.09
2023-03-26T10:52:38.037Z,9.91
2023-03-26T10:53:38.035Z,9.86
2023-03-26T10:54:38.021Z,9.81
2023-03-26T10:55:38.008Z,9.86
2023-03-26T10:56:38.050Z,9.83
2023-03-26T10:57:37.995Z,9.84
2023-03-26T10:58:49.330Z,9.81
2023-03-26T10:59:38.980Z,9.78
2023-03-26T11:00:37.950Z,9.76
2023-03-26T11:01:38.814Z,9.74
2023-03-26T11:02:37.988Z,9.69
2023-03-26T11:03:37.937Z,9.56
2023-03-26T11:04:37.908Z,9.53
2023-03-26T11:05:37.927Z,9.46
2023-03-26T11:06:37.896Z,9.46
2023-03-26T11:07:37.891Z,9.40
2023-03-26T11:08:37.864Z,9.38
2023-03-26T11:09:37.868Z,9.40
2023-03-26T11:10:37.838Z,9.39
2023-03-26T11:11:37.844Z,9.36
2023-03-26T11:12:37.820Z,9.39
2023-03-26T11:13:37.822Z,9.46
2023-03-26T11:14:37.798Z,9.53
2023-03-26T11:15:37.855Z,9.60
2023-03-26T11:16:37.783Z,9.66
2023-03-26T11:17:39.436Z,9.75
2023-03-26T11:18:37.760Z,9.79
2023-03-26T11:19:37.764Z,9.84
2023-03-26T11:20:38.377Z,9.87
2023-03-26T11:21:37.737Z,9.89
2023-03-26T11:22:37.717Z,9.90
2023-03-26T11:23:37.714Z,9.94
2023-03-26T11:24:37.692Z,9.99
2023-03-26T11:25:37.698Z,10.01
2023-03-26T11:26:39.371Z,10.07
2023-03-26T11:27:37.666Z,10.09
2023-03-26T11:28:37.650Z,10.17
2023-03-26T11:29:37.661Z,10.30
2023-03-26T11:30:37.624Z,10.44
2023-03-26T11:31:37.718Z,10.55
2023-03-26T11:32:37.668Z,10.70
2023-03-26T11:33:37.622Z,10.74
2023-03-26T11:34:38.630Z,10.88
2023-03-26T11:35:39.697Z,11.06
2023-03-26T11:36:37.584Z,11.04
2023-03-26T11:37:37.566Z,11.11
2023-03-26T11:38:37.810Z,11.27
2023-03-26T11:39:37.550Z,11.46
2023-03-26T11:40:37.529Z,11.55
2023-03-26T11:41:37.525Z,11.47
2023-03-26T11:42:37.502Z,11.58
2023-03-26T11:43:37.505Z,11.75
2023-03-26T11:44:37.471Z,11.85
2023-03-26T11:45:37.471Z,11.96
2023-03-26T11:46:37.529Z,12.10
2023-03-26T11:47:37.471Z,12.14
2023-03-26T11:48:37.432Z,12.19
2023-03-26T11:49:37.436Z,12.24
2023-03-26T11:50:37.413Z,12.31
2023-03-26T11:51:37.417Z,12.41
2023-03-26T11:52:37.392Z,12.32
2023-03-26T11:53:37.398Z,12.24
2023-03-26T11:54:37.363Z,12.19
2023-03-26T11:55:37.381Z,12.09
2023-03-26T11:56:37.386Z,11.91
2023-03-26T11:57:37.430Z,11.91
2023-03-26T11:58:37.325Z,11.90
2023-03-26T11:59:45.602Z,11.79
2023-03-26T12:00:38.305Z,11.65
2023-03-26T12:01:37.360Z,11.65
2023-03-26T12:02:37.380Z,11.54
2023-03-26T12:03:37.281Z,11.55
2023-03-26T12:04:37.328Z,11.54
2023-03-26T12:05:37.264Z,11.42
2023-03-26T12:06:37.620Z,11.24
2023-03-26T12:07:37.255Z,11.10
2023-03-26T12:08:37.279Z,10.96
2023-03-26T12:09:37.278Z,10.68
2023-03-26T12:10:37.209Z,10.61
2023-03-26T12:11:37.185Z,10.53
2023-03-26T12:12:37.166Z,10.47
2023-03-26T12:13:37.182Z,10.45
2023-03-26T12:14:37.150Z,10.17
2023-03-26T12:15:37.152Z,10.07
2023-03-26T12:16:37.142Z,10.23
2023-03-26T12:17:37.138Z,10.18
2023-03-26T12:18:37.110Z,10.02
2023-03-26T12:19:37.099Z,9.96
2023-03-26T12:20:37.083Z,10.01
2023-03-26T12:21:37.080Z,10.02
2023-03-26T12:22:37.058Z,9.99
2023-03-26T12:23:37.067Z,9.89
2023-03-26T12:24:37.051Z,9.84
2023-03-26T12:25:37.032Z,9.78
2023-03-26T12:26:37.013Z,9.68
2023-03-26T12:27:37.011Z,9.48
2023-03-26T12:28:36.993Z,9.33
2023-03-26T12:29:37.002Z,9.29
2023-03-26T12:30:36.969Z,9.31
2023-03-26T12:31:36.986Z,9.33
2023-03-26T12:32:45.810Z,9.39
2023-03-26T12:33:37.951Z,9.56
2023-03-26T12:34:36.946Z,9.72
2023-03-26T12:35:36.972Z,9.96
2023-03-26T12:36:36.906Z,10.07
2023-03-26T12:37:36.912Z,10.05
2023-03-26T12:38:36.883Z,10.23
2023-03-26T12:40:07.284Z,10.30
2023-03-26T12:40:37.864Z,10.55
2023-03-26T12:44:42.665Z,11.07
2023-03-26T12:44:49.558Z,11.25
2023-03-26T12:44:50.880Z,11.24
2023-03-26T12:44:56.402Z,11.22
2023-03-26T12:45:37.828Z,10.82
2023-03-26T12:47:56.942Z,10.84
2023-03-26T12:48:01.246Z,10.84
2023-03-26T12:48:37.886Z,10.73
2023-03-26T12:49:36.770Z,10.68
2023-03-26T12:50:36.760Z,10.64
2023-03-26T12:51:36.750Z,10.64
2023-03-26T12:52:36.732Z,10.59
2023-03-26T12:53:36.726Z,10.33
2023-03-26T12:54:36.760Z,10.20
2023-03-26T12:55:36.740Z,10.18
2023-03-26T12:56:36.838Z,10.32
2023-03-26T12:57:36.730Z,10.67
2023-03-26T12:58:36.671Z,10.92
2023-03-26T12:59:36.662Z,11.25
2023-03-26T13:00:36.654Z,11.86
2023-03-26T13:01:36.653Z,12.96
2023-03-26T13:02:36.704Z,12.89
2023-03-26T13:03:36.666Z,12.65
2023-03-26T13:04:36.671Z,12.49
2023-03-26T13:05:36.600Z,12.71
2023-03-26T13:06:58.950Z,14.04
2023-03-26T13:07:37.585Z,14.92
2023-03-26T13:08:36.557Z,15.34
2023-03-26T13:09:36.563Z,15.68
2023-03-26T13:10:36.539Z,16.25
2023-03-26T13:11:36.536Z,16.73
2023-03-26T13:12:36.518Z,16.94
2023-03-26T13:13:36.517Z,16.93
2023-03-26T13:14:36.496Z,16.09